createdAt,value
2018-07-21T00:00:55.227Z,38.73
2018-07-21T00:03:23.847Z,38.81
2018-07-21T00:05:52.468Z,38.73
2018-07-21T00:08:21.111Z,38.38
2018-07-21T00:10:49.785Z,38.82
2018-07-21T00:13:18.454Z,38.47
2018-07-21T00:15:47.073Z,38.24
2018-07-21T00:18:15.695Z,39.00
2018-07-21T00:20:44.293Z,39.01
2018-07-21T00:23:12.997Z,39.03
2018-07-21T00:25:41.681Z,38.44
2018-07-21T00:28:10.279Z,39.56
2018-07-21T00:30:38.880Z,38.84
2018-07-21T00:33:07.509Z,39.36
2018-07-21T00:35:36.095Z,40.28
2018-07-21T00:38:04.674Z,39.79
2018-07-21T00:40:33.243Z,39.92
2018-07-21T00:43:01.908Z,40.11
2018-07-21T00:45:30.560Z,40.09
2018-07-21T00:47:59.230Z,40.63
2018-07-21T00:50:27.717Z,40.93
2018-07-21T00:52:56.327Z,40.98
2018-07-21T00:55:24.954Z,41.65
2018-07-21T00:57:53.648Z,41.99
2018-07-21T01:00:22.266Z,42.04
2018-07-21T01:02:50.867Z,41.81
2018-07-21T01:05:19.469Z,41.41
2018-07-21T01:07:48.004Z,41.41
2018-07-21T01:10:16.501Z,42.11
2018-07-21T01:12:45.071Z,42.70
2018-07-21T01:15:13.579Z,42.74
2018-07-21T01:17:42.058Z,42.19
2018-07-21T01:20:10.656Z,43.09
2018-07-21T01:22:39.255Z,42.44
2018-07-21T01:25:07.977Z,43.25
2018-07-21T01:27:36.518Z,43.21
2018-07-21T01:30:05.824Z,43.32
2018-07-21T01:32:34.444Z,42.61
2018-07-21T01:35:03.008Z,43.49
2018-07-21T01:37:31.543Z,42.65
2018-07-21T01:40:00.074Z,43.57
2018-07-21T01:42:28.595Z,43.59
2018-07-21T01:44:57.142Z,43.64
2018-07-21T01:47:25.710Z,44.15
2018-07-21T01:49:54.258Z,43.47
2018-07-21T01:52:22.803Z,43.54
2018-07-21T01:54:51.314Z,44.35
2018-07-21T01:57:19.904Z,43.74
2018-07-21T01:59:48.545Z,43.85
2018-07-21T02:02:17.351Z,43.95
2018-07-21T02:04:45.832Z,44.61
2018-07-21T02:07:14.383Z,44.25
2018-07-21T02:09:43.134Z,45.09
2018-07-21T02:12:11.800Z,44.67
2018-07-21T02:14:40.621Z,45.69
2018-07-21T02:17:09.122Z,45.55
2018-07-21T02:19:37.840Z,45.42
2018-07-21T02:22:06.494Z,45.65
2018-07-21T02:24:35.038Z,46.20
2018-07-21T02:27:03.588Z,46.01
2018-07-21T02:29:32.140Z,46.17
2018-07-21T02:32:00.800Z,46.23
2018-07-21T02:34:29.301Z,46.31
2018-07-21T02:36:57.901Z,46.52
2018-07-21T02:39:26.486Z,45.97
2018-07-21T02:41:55.065Z,47.00
2018-07-21T02:44:23.738Z,46.83
2018-07-21T02:46:52.248Z,46.47
2018-07-21T02:49:21.081Z,47.36
2018-07-21T02:51:49.598Z,47.63
2018-07-21T02:54:18.324Z,47.44
2018-07-21T02:56:46.970Z,47.75
2018-07-21T02:59:15.636Z,47.99
2018-07-21T03:01:44.202Z,48.13
2018-07-21T03:04:12.795Z,47.93
2018-07-21T03:06:42.379Z,47.91
2018-07-21T03:09:12.328Z,47.21
2018-07-21T03:11:41.195Z,47.76
2018-07-21T03:14:09.870Z,47.36
2018-07-21T03:16:38.482Z,48.03
2018-07-21T03:19:07.137Z,48.06
2018-07-21T03:21:35.773Z,47.54
2018-07-21T03:24:04.426Z,48.35
2018-07-21T03:26:33.119Z,47.94
2018-07-21T03:29:01.755Z,48.86
2018-07-21T03:31:30.375Z,48.54
2018-07-21T03:33:59.123Z,47.68
2018-07-21T03:36:27.731Z,48.08
2018-07-21T03:38:56.347Z,48.33
2018-07-21T03:41:25.008Z,48.14
2018-07-21T03:43:53.626Z,48.22
2018-07-21T03:46:22.240Z,48.04
2018-07-21T03:48:50.796Z,48.42
2018-07-21T03:51:19.370Z,48.65
2018-07-21T03:53:47.959Z,49.07
2018-07-21T03:56:16.713Z,49.05
2018-07-21T03:58:45.293Z,48.85
2018-07-21T04:01:14.056Z,48.71
2018-07-21T04:03:42.627Z,48.70
2018-07-21T04:06:11.476Z,49.34
2018-07-21T04:08:40.181Z,49.53
2018-07-21T04:11:09.824Z,48.75
2018-07-21T04:13:38.539Z,49.41
2018-07-21T04:16:07.300Z,48.48
2018-07-21T04:18:35.884Z,49.45
2018-07-21T04:21:04.792Z,49.16
2018-07-21T04:23:33.487Z,49.27
2018-07-21T04:26:02.173Z,49.20
2018-07-21T04:28:31.716Z,48.98
2018-07-21T04:31:00.282Z,48.87
2018-07-21T04:33:28.971Z,49.67
2018-07-21T04:35:57.641Z,49.84
2018-07-21T04:38:26.291Z,49.73
2018-07-21T04:40:54.772Z,49.87
2018-07-21T04:43:23.396Z,49.97
2018-07-21T04:45:51.935Z,49.95
2018-07-21T04:48:20.491Z,50.00
2018-07-21T04:50:48.973Z,49.61
2018-07-21T04:53:17.464Z,50.15
2018-07-21T04:55:46.015Z,49.95
2018-07-21T04:58:14.921Z,49.77
2018-07-21T05:00:43.507Z,49.24
2018-07-21T05:03:12.079Z,49.42
2018-07-21T05:05:40.679Z,50.06
2018-07-21T05:08:09.236Z,50.36
2018-07-21T05:10:37.780Z,50.36
2018-07-21T05:13:06.490Z,50.11
2018-07-21T05:15:35.033Z,50.43
2018-07-21T05:18:03.587Z,49.68
2018-07-21T05:20:32.322Z,50.31
2018-07-21T05:23:00.822Z,50.70
2018-07-21T05:25:29.978Z,50.71
2018-07-21T05:27:58.594Z,50.82
2018-07-21T05:30:27.249Z,50.85
2018-07-21T05:32:55.880Z,50.51
2018-07-21T05:35:24.569Z,50.79
2018-07-21T05:37:53.508Z,50.56
2018-07-21T05:40:22.152Z,50.25
2018-07-21T05:42:50.673Z,50.75
2018-07-21T05:45:19.264Z,50.64
2018-07-21T05:47:47.794Z,50.87
2018-07-21T05:50:16.322Z,50.82
2018-07-21T05:52:44.793Z,50.09
2018-07-21T05:55:13.692Z,49.74
2018-07-21T05:57:42.183Z,50.48
2018-07-21T06:00:12.779Z,49.65
2018-07-21T06:02:41.474Z,48.49
2018-07-21T06:05:10.045Z,48.27
2018-07-21T06:07:38.604Z,47.01
2018-07-21T06:10:07.125Z,46.89
2018-07-21T06:12:35.861Z,47.54
2018-07-21T06:15:04.602Z,46.79
2018-07-21T06:17:33.133Z,46.74
2018-07-21T06:20:01.871Z,46.27
2018-07-21T06:22:30.681Z,47.12
2018-07-21T06:25:00.236Z,46.39
2018-07-21T06:27:29.370Z,45.68
2018-07-21T06:29:58.032Z,45.81
2018-07-21T06:32:26.598Z,44.93
2018-07-21T06:34:56.497Z,44.76
2018-07-21T06:37:25.094Z,45.08
2018-07-21T06:39:53.625Z,45.55
2018-07-21T06:42:22.301Z,44.52
2018-07-21T06:44:50.850Z,44.63
2018-07-21T06:47:19.329Z,45.19
2018-07-21T06:49:48.583Z,44.00
2018-07-21T06:52:17.165Z,43.69
2018-07-21T06:54:45.749Z,44.07
2018-07-21T06:57:14.582Z,42.58
2018-07-21T06:59:43.641Z,43.54
2018-07-21T07:02:12.673Z,42.76
2018-07-21T07:04:41.311Z,41.80
2018-07-21T07:07:09.839Z,41.37
2018-07-21T07:09:38.406Z,41.84
2018-07-21T07:12:06.959Z,41.02
2018-07-21T07:14:35.568Z,41.16
2018-07-21T07:17:04.149Z,40.14
2018-07-21T07:19:32.798Z,40.41
2018-07-21T07:22:01.337Z,40.52
2018-07-21T07:24:29.922Z,40.83
2018-07-21T07:26:58.511Z,40.07
2018-07-21T07:29:27.031Z,41.21
2018-07-21T07:31:55.680Z,39.68
2018-07-21T07:34:24.472Z,39.19
2018-07-21T07:36:53.133Z,38.19
2018-07-21T07:39:21.734Z,37.39
2018-07-21T07:41:50.443Z,35.87
2018-07-21T07:44:19.160Z,35.35
2018-07-21T07:46:48.226Z,33.55
2018-07-21T07:49:16.782Z,33.42
2018-07-21T07:51:45.489Z,32.13
2018-07-21T07:54:14.052Z,32.47
2018-07-21T07:56:42.618Z,31.54
2018-07-21T07:59:11.238Z,30.85
2018-07-21T08:01:40.021Z,29.42
2018-07-21T08:04:08.753Z,29.74
2018-07-21T08:06:37.547Z,29.20
2018-07-21T08:09:08.155Z,28.10
2018-07-21T08:11:36.640Z,29.32
2018-07-21T08:14:05.272Z,27.96
2018-07-21T08:16:33.827Z,26.25
2018-07-21T08:19:02.351Z,26.23
2018-07-21T08:21:30.966Z,25.52
2018-07-21T08:23:59.648Z,25.21
2018-07-21T08:26:28.167Z,24.74
2018-07-21T08:28:56.682Z,24.10
2018-07-21T08:31:25.158Z,23.17
2018-07-21T08:33:53.714Z,22.00
2018-07-21T08:36:22.189Z,22.64
2018-07-21T08:38:50.691Z,22.65
2018-07-21T08:41:19.177Z,24.04
2018-07-21T08:43:47.716Z,23.72
2018-07-21T08:46:16.329Z,23.13
2018-07-21T08:48:44.941Z,22.47
2018-07-21T08:51:13.476Z,21.59
2018-07-21T08:53:41.945Z,20.88
2018-07-21T08:56:10.586Z,21.03
2018-07-21T08:58:39.112Z,20.65
2018-07-21T09:01:07.716Z,20.39
2018-07-21T09:03:36.202Z,19.75
2018-07-21T09:06:04.823Z,19.36
2018-07-21T09:08:33.486Z,18.40
2018-07-21T09:11:02.077Z,17.91
2018-07-21T09:13:30.753Z,18.61
2018-07-21T09:15:59.387Z,18.23
2018-07-21T09:18:28.138Z,18.26
2018-07-21T09:20:56.775Z,18.01
2018-07-21T09:23:25.412Z,17.49
2018-07-21T09:25:54.471Z,17.66
2018-07-21T09:28:23.072Z,16.37
2018-07-21T09:30:51.669Z,15.63
2018-07-21T09:33:20.437Z,15.83
2018-07-21T09:35:49.501Z,15.29
2018-07-21T09:38:18.606Z,15.44
2018-07-21T09:40:47.350Z,14.60
2018-07-21T09:43:16.854Z,13.97
2018-07-21T09:45:45.905Z,13.85
2018-07-21T09:48:16.025Z,14.18
2018-07-21T09:50:45.011Z,14.00
2018-07-21T09:53:13.802Z,14.12
2018-07-21T09:55:42.847Z,13.51
2018-07-21T09:58:11.429Z,13.09
2018-07-21T10:00:45.779Z,13.78
2018-07-21T10:03:14.492Z,12.54
2018-07-21T10:05:43.127Z,13.08
2018-07-21T10:08:11.932Z,12.29
2018-07-21T10:10:40.937Z,12.84
2018-07-21T10:13:09.543Z,12.53
2018-07-21T10:15:38.180Z,11.08
2018-07-21T10:18:06.907Z,12.23
2018-07-21T10:20:35.531Z,11.50
2018-07-21T10:23:05.567Z,11.44
2018-07-21T10:25:39.774Z,11.52
2018-07-21T10:28:13.944Z,11.21
2018-07-21T10:30:43.244Z,10.57
2018-07-21T10:33:12.470Z,10.11
2018-07-21T10:35:41.959Z,11.21
2018-07-21T10:38:11.675Z,10.88
2018-07-21T10:40:41.925Z,10.93
2018-07-21T10:43:13.947Z,9.89
2018-07-21T10:45:43.431Z,10.18
2018-07-21T10:48:13.510Z,9.83
2018-07-21T10:50:43.957Z,10.05
2018-07-21T10:53:18.679Z,10.49
2018-07-21T10:55:49.403Z,9.62
2018-07-21T10:58:19.006Z,9.56
2018-07-21T11:00:49.370Z,9.32
2018-07-21T11:03:19.196Z,9.65
2018-07-21T11:05:48.991Z,9.75
2018-07-21T11:08:18.155Z,9.62
2018-07-21T11:10:47.327Z,9.46
2018-07-21T11:13:16.453Z,9.86
2018-07-21T11:15:45.750Z,9.62
2018-07-21T11:18:14.679Z,9.12
2018-07-21T11:20:43.730Z,9.78
2018-07-21T11:23:12.536Z,10.29
2018-07-21T11:25:41.823Z,10.17
2018-07-21T11:28:10.434Z,10.04
2018-07-21T11:30:39.903Z,10.93
2018-07-21T11:33:08.769Z,10.24
2018-07-21T11:35:37.540Z,10.37
2018-07-21T11:38:06.137Z,11.55
2018-07-21T11:40:34.919Z,11.50
2018-07-21T11:43:03.686Z,12.25
2018-07-21T11:45:32.362Z,12.10
2018-07-21T11:48:01.249Z,12.88
2018-07-21T11:50:29.929Z,12.90
2018-07-21T11:52:58.717Z,13.18
2018-07-21T11:55:27.423Z,14.25
2018-07-21T11:57:56.067Z,13.76
2018-07-21T12:00:24.772Z,14.41
2018-07-21T12:02:53.440Z,14.15
2018-07-21T12:05:22.103Z,14.62
2018-07-21T12:07:50.858Z,15.19
2018-07-21T12:10:19.604Z,16.03
2018-07-21T12:12:48.325Z,15.89
2018-07-21T12:15:16.973Z,15.93
2018-07-21T12:17:45.791Z,15.57
2018-07-21T12:20:14.453Z,16.34
2018-07-21T12:22:43.121Z,16.60
2018-07-21T12:25:11.835Z,16.92
2018-07-21T12:27:40.462Z,16.79
2018-07-21T12:30:09.296Z,18.02
2018-07-21T12:32:37.984Z,17.83
2018-07-21T12:35:06.751Z,18.60
2018-07-21T12:37:35.435Z,18.39
2018-07-21T12:40:04.303Z,19.32
2018-07-21T12:42:33.697Z,19.02
2018-07-21T12:45:04.088Z,19.16
2018-07-21T12:47:32.948Z,19.23
2018-07-21T12:50:01.655Z,19.33
2018-07-21T12:52:30.384Z,19.54
2018-07-21T12:54:59.019Z,19.03
2018-07-21T12:57:27.592Z,19.58
2018-07-21T12:59:56.224Z,19.27
2018-07-21T13:02:24.886Z,19.93
2018-07-21T13:04:53.915Z,20.64
2018-07-21T13:07:22.544Z,20.51
2018-07-21T13:09:51.269Z,20.41
2018-07-21T13:12:19.909Z,20.50
2018-07-21T13:14:48.643Z,20.49
2018-07-21T13:17:17.410Z,20.43
2018-07-21T13:19:46.150Z,20.93
2018-07-21T13:22:14.719Z,20.38
2018-07-21T13:24:43.585Z,20.97
2018-07-21T13:27:12.166Z,20.85
2018-07-21T13:29:40.751Z,20.71
2018-07-21T13:32:09.643Z,21.22
2018-07-21T13:34:38.183Z,21.20
2018-07-21T13:37:06.999Z,22.63
2018-07-21T13:39:35.572Z,21.50
2018-07-21T13:42:04.162Z,21.59
2018-07-21T13:44:32.899Z,22.60
2018-07-21T13:47:01.603Z,22.27
2018-07-21T13:49:30.364Z,23.10
2018-07-21T13:51:59.200Z,22.90
2018-07-21T13:54:28.016Z,23.07
2018-07-21T13:56:56.763Z,22.76
2018-07-21T13:59:25.608Z,22.56
2018-07-21T14:01:54.231Z,24.53
2018-07-21T14:04:22.875Z,24.45
2018-07-21T14:06:51.777Z,25.79
2018-07-21T14:09:20.628Z,28.22
2018-07-21T14:11:49.473Z,29.64
2018-07-21T14:14:18.271Z,30.15
2018-07-21T14:16:49.986Z,31.96
2018-07-21T14:19:18.753Z,33.64
2018-07-21T14:21:47.434Z,34.60
2018-07-21T14:24:16.251Z,35.37
2018-07-21T14:26:45.036Z,35.39
2018-07-21T14:29:13.724Z,36.37
2018-07-21T14:31:42.378Z,36.98
2018-07-21T14:34:11.024Z,37.84
2018-07-21T14:36:39.965Z,39.34
2018-07-21T14:39:10.009Z,39.79
2018-07-21T14:41:39.302Z,39.75
2018-07-21T14:44:07.946Z,39.67
2018-07-21T14:46:36.629Z,39.12
2018-07-21T14:49:05.551Z,40.43
2018-07-21T14:51:34.324Z,39.66
2018-07-21T14:54:03.116Z,39.86
2018-07-21T14:56:32.154Z,40.01
2018-07-21T14:59:00.930Z,40.58
2018-07-21T15:01:29.797Z,40.75
2018-07-21T15:03:58.635Z,42.23
2018-07-21T15:06:27.480Z,42.70
2018-07-21T15:08:56.291Z,42.56
2018-07-21T15:11:24.965Z,42.74
2018-07-21T15:13:53.614Z,42.80
2018-07-21T15:16:22.662Z,42.82
2018-07-21T15:18:52.204Z,41.73
2018-07-21T15:21:21.051Z,41.48
2018-07-21T15:23:49.687Z,41.24
2018-07-21T15:26:18.341Z,39.49
2018-07-21T15:28:46.940Z,38.67
2018-07-21T15:31:15.767Z,39.38
2018-07-21T15:33:44.409Z,39.66
2018-07-21T15:36:13.333Z,38.98
2018-07-21T15:38:42.822Z,37.91
2018-07-21T15:41:11.485Z,38.20
2018-07-21T15:43:40.275Z,38.77
2018-07-21T15:46:09.061Z,37.88
2018-07-21T15:48:37.707Z,37.12
2018-07-21T15:51:06.361Z,37.01
2018-07-21T15:53:35.397Z,37.99
2018-07-21T15:56:04.463Z,37.83
2018-07-21T15:58:33.230Z,37.65
2018-07-21T16:01:01.938Z,37.55
2018-07-21T16:03:30.700Z,37.80
2018-07-21T16:05:59.537Z,36.47
2018-07-21T16:08:28.366Z,36.76
2018-07-21T16:10:57.066Z,35.88
2018-07-21T16:13:25.710Z,35.76
2018-07-21T16:15:55.892Z,36.89
2018-07-21T16:18:32.189Z,36.53
2018-07-21T16:21:01.291Z,37.82
2018-07-21T16:23:30.457Z,37.98
2018-07-21T16:25:59.326Z,36.98
2018-07-21T16:28:28.194Z,37.73
2018-07-21T16:30:56.850Z,36.94
2018-07-21T16:33:25.646Z,36.69
2018-07-21T16:35:54.480Z,37.86
2018-07-21T16:38:23.514Z,37.36
2018-07-21T16:40:52.227Z,37.70
2018-07-21T16:43:21.010Z,37.55
2018-07-21T16:45:49.842Z,36.72
2018-07-21T16:48:18.684Z,37.69
2018-07-21T16:50:47.440Z,37.71
2018-07-21T16:53:16.138Z,37.75
2018-07-21T16:55:44.904Z,37.77
2018-07-21T16:58:13.588Z,38.46
2018-07-21T17:00:42.251Z,37.91
2018-07-21T17:03:10.891Z,38.49
2018-07-21T17:05:39.684Z,38.61
2018-07-21T17:08:08.692Z,38.62
2018-07-21T17:10:37.375Z,39.07
2018-07-21T17:13:05.982Z,39.32
2018-07-21T17:15:34.653Z,39.92
2018-07-21T17:18:03.399Z,38.98
2018-07-21T17:20:32.114Z,39.36
2018-07-21T17:23:00.911Z,40.13
2018-07-21T17:25:29.494Z,40.21
2018-07-21T17:27:58.230Z,40.40
2018-07-21T17:30:26.828Z,39.77
2018-07-21T17:32:55.490Z,40.43
2018-07-21T17:35:24.125Z,40.75
2018-07-21T17:37:52.688Z,40.16
2018-07-21T17:40:21.477Z,40.10
2018-07-21T17:42:50.223Z,40.84
2018-07-21T17:45:18.782Z,41.05
2018-07-21T17:47:47.450Z,41.41
2018-07-21T17:50:16.158Z,41.41
2018-07-21T17:52:44.867Z,40.39
2018-07-21T17:55:13.462Z,40.87
2018-07-21T17:57:42.176Z,41.02
2018-07-21T18:00:11.002Z,42.06
2018-07-21T18:02:39.597Z,42.40
2018-07-21T18:05:08.317Z,41.60
2018-07-21T18:07:37.001Z,41.13
2018-07-21T18:10:05.650Z,41.98
2018-07-21T18:12:34.502Z,42.13
2018-07-21T18:15:03.105Z,42.50
2018-07-21T18:17:31.741Z,41.65
2018-07-21T18:20:00.509Z,41.78
2018-07-21T18:22:29.250Z,41.97
2018-07-21T18:24:57.962Z,42.83
2018-07-21T18:27:26.628Z,42.80
2018-07-21T18:29:55.295Z,42.76
2018-07-21T18:32:24.055Z,43.21
2018-07-21T18:34:52.717Z,42.90
2018-07-21T18:37:21.413Z,43.21
2018-07-21T18:39:50.209Z,43.16
2018-07-21T18:42:18.851Z,42.67
2018-07-21T18:44:47.522Z,43.16
2018-07-21T18:47:17.471Z,43.10
2018-07-21T18:49:46.112Z,42.56
2018-07-21T18:52:14.788Z,42.85
2018-07-21T18:54:43.701Z,42.19
2018-07-21T18:57:12.982Z,42.11
2018-07-21T18:59:41.570Z,42.00
2018-07-21T19:02:10.275Z,41.19
2018-07-21T19:04:38.936Z,39.77
2018-07-21T19:07:07.720Z,40.23
2018-07-21T19:09:36.284Z,39.39
2018-07-21T19:12:10.048Z,39.33
2018-07-21T19:14:38.798Z,39.56
2018-07-21T19:17:07.395Z,39.35
2018-07-21T19:19:41.275Z,39.72
2018-07-21T19:22:09.921Z,39.96
2018-07-21T19:24:38.669Z,39.32
2018-07-21T19:27:12.580Z,40.40
2018-07-21T19:29:41.241Z,39.72
2018-07-21T19:32:14.986Z,39.93
2018-07-21T19:34:43.614Z,40.41
2018-07-21T19:37:17.590Z,39.69
2018-07-21T19:39:46.275Z,40.25
2018-07-21T19:42:14.973Z,40.00
2018-07-21T19:44:43.520Z,39.22
2018-07-21T19:47:12.399Z,39.88
2018-07-21T19:49:41.086Z,39.17
2018-07-21T19:52:09.826Z,40.21
2018-07-21T19:54:38.607Z,40.19
2018-07-21T19:57:07.444Z,39.31
2018-07-21T19:59:36.244Z,39.92
2018-07-21T20:02:04.976Z,40.14
2018-07-21T20:04:33.790Z,40.35
2018-07-21T20:07:02.590Z,40.76
2018-07-21T20:09:31.428Z,40.97
2018-07-21T20:12:00.107Z,40.87
2018-07-21T20:14:28.772Z,40.41
2018-07-21T20:16:57.446Z,40.94
2018-07-21T20:19:25.968Z,40.68
2018-07-21T20:21:54.558Z,40.52
2018-07-21T20:24:23.345Z,40.68
2018-07-21T20:26:52.091Z,40.93
2018-07-21T20:29:20.776Z,41.29
2018-07-21T20:31:49.555Z,41.55
2018-07-21T20:34:18.121Z,41.45
2018-07-21T20:36:46.715Z,41.10
2018-07-21T20:39:15.250Z,41.03
2018-07-21T20:41:43.883Z,40.93
2018-07-21T20:44:12.574Z,41.24
2018-07-21T20:46:41.199Z,41.23
2018-07-21T20:49:09.888Z,41.68
2018-07-21T20:51:38.577Z,40.93
2018-07-21T20:54:08.256Z,41.04
2018-07-21T20:56:47.498Z,42.02
2018-07-21T20:59:16.208Z,41.76
2018-07-21T21:01:45.751Z,42.01
2018-07-21T21:04:14.396Z,42.06
2018-07-21T21:06:43.060Z,42.00
2018-07-21T21:09:12.069Z,42.15
2018-07-21T21:11:40.778Z,42.12
2018-07-21T21:14:09.369Z,42.10
2018-07-21T21:16:38.184Z,42.33
2018-07-21T21:19:06.723Z,42.76
2018-07-21T21:21:35.255Z,43.21
2018-07-21T21:24:03.790Z,42.71
2018-07-21T21:26:32.364Z,43.37
2018-07-21T21:29:00.938Z,42.43
2018-07-21T21:31:29.532Z,43.41
2018-07-21T21:33:58.121Z,43.19
2018-07-21T21:36:26.654Z,43.21
2018-07-21T21:38:55.265Z,43.29
2018-07-21T21:41:23.849Z,44.17
2018-07-21T21:43:52.412Z,43.44
2018-07-21T21:46:20.993Z,44.86
2018-07-21T21:48:49.524Z,44.60
2018-07-21T21:51:18.056Z,44.09
2018-07-21T21:53:46.566Z,44.09
2018-07-21T21:56:15.168Z,44.20
2018-07-21T21:58:44.012Z,44.12
2018-07-21T22:01:14.332Z,44.76
2018-07-21T22:03:43.220Z,45.67
2018-07-21T22:06:11.857Z,45.58
2018-07-21T22:08:40.468Z,45.31
2018-07-21T22:11:09.043Z,45.36
2018-07-21T22:13:37.602Z,45.90
2018-07-21T22:16:06.288Z,46.36
2018-07-21T22:18:34.880Z,45.87
2018-07-21T22:21:03.523Z,46.57
2018-07-21T22:23:32.175Z,45.64
2018-07-21T22:26:00.899Z,46.31
2018-07-21T22:28:29.614Z,46.81
2018-07-21T22:30:58.284Z,46.29
2018-07-21T22:33:27.021Z,47.04
2018-07-21T22:35:55.976Z,46.51
2018-07-21T22:38:24.656Z,47.13
2018-07-21T22:40:53.253Z,46.96
2018-07-21T22:43:21.930Z,47.86
2018-07-21T22:45:50.670Z,47.92
2018-07-21T22:48:19.406Z,47.70
2018-07-21T22:50:48.093Z,47.84
2018-07-21T22:53:16.592Z,47.67
2018-07-21T22:55:45.163Z,47.36
2018-07-21T22:58:13.721Z,47.64
2018-07-21T23:00:42.335Z,47.18
2018-07-21T23:03:10.936Z,47.04
2018-07-21T23:05:39.530Z,47.68
2018-07-21T23:08:08.164Z,47.16
2018-07-21T23:10:36.727Z,47.91
2018-07-21T23:13:05.472Z,47.13
2018-07-21T23:15:34.050Z,47.88
2018-07-21T23:18:02.691Z,47.39
2018-07-21T23:20:31.369Z,48.05
2018-07-21T23:23:00.031Z,48.24
2018-07-21T23:25:28.664Z,48.57
2018-07-21T23:27:57.261Z,48.48
2018-07-21T23:30:25.816Z,48.55
2018-07-21T23:32:54.366Z,48.41
2018-07-21T23:35:23.010Z,48.64
2018-07-21T23:37:51.613Z,47.77
2018-07-21T23:40:20.188Z,47.41
2018-07-21T23:42:48.881Z,47.64
2018-07-21T23:45:17.582Z,47.91
2018-07-21T23:47:46.164Z,47.95
2018-07-21T23:50:14.996Z,47.94
2018-07-21T23:52:43.601Z,47.76
2018-07-21T23:55:12.268Z,48.00
2018-07-21T23:57:40.990Z,47.56
